This is the latest recevied weather packets stored in our database for station/object WX1NWA. If no packets are shown the sender has not sent any weather packets the latest 1 day(s).
| Time | Temp. | Humidity | Pressure | Rain* | Wind** | Luminosity | Snow |
|---|---|---|---|---|---|---|---|
| 1777989535 | 14.44° C | 99% | 1009.3 hPa | 0 mm | 1.79 m/s, 263° | 138 W/m² | - |
| 1777989231 | 14.44° C | 99% | 1009.3 hPa | 0 mm | 1.34 m/s, 247° | 91 W/m² | - |
| 1777988927 | 14.44° C | 99% | 1009.2 hPa | 0 mm | 2.24 m/s, 210° | 85 W/m² | - |
| 1777988624 | 14.44° C | 99% | 1009.6 hPa | 0 mm | 1.34 m/s, 51° | 67 W/m² | - |
| 1777988321 | 14.44° C | 99% | 1009.5 hPa | 0 mm | 0.45 m/s, 50° | 74 W/m² | - |
| 1777988018 | 14.44° C | 99% | 1009.2 hPa | 0 mm | 2.24 m/s, 141° | 133 W/m² | - |
| 1777987713 | 13.89° C | 99% | 1009.3 hPa | 0 mm | 1.79 m/s, 197° | 104 W/m² | - |
| 1777987411 | 13.89° C | 99% | 1009.1 hPa | 0 mm | 2.68 m/s, 138° | 69 W/m² | - |
| 1777987108 | 13.89° C | 99% | 1009.6 hPa | 0 mm | 2.24 m/s, 127° | 65 W/m² | - |
| 1777986805 | 13.89° C | 99% | 1009.5 hPa | 0 mm | 1.79 m/s, 154° | 59 W/m² | - |
| 1777986503 | 13.89° C | 99% | 1009.6 hPa | 0 mm | 2.24 m/s, 157° | 71 W/m² | - |
| 1777986201 | 13.89° C | 99% | 1009.6 hPa | 0 mm | 1.79 m/s, 106° | 58 W/m² | - |
| 1777985898 | 13.89° C | 99% | 1009.7 hPa | 0 mm | 1.34 m/s, 180° | 47 W/m² | - |
| 1777985595 | 13.89° C | 99% | 1009.6 hPa | 0 mm | 2.68 m/s, 208° | 35 W/m² | - |
| 1777985291 | 13.89° C | 99% | 1009.7 hPa | 0 mm | 2.24 m/s, 208° | 18 W/m² | - |
| 1777984988 | 13.89° C | 99% | 1009.6 hPa | 0 mm | 0.89 m/s, 143° | 13 W/m² | - |
| 1777984684 | 13.89° C | 99% | 1009.7 hPa | 0 mm | 2.24 m/s, 139° | 15 W/m² | - |
| 1777984381 | 13.89° C | 99% | 1009.8 hPa | 0 mm | 3.13 m/s, 134° | 8 W/m² | - |
| 1777984077 | 13.89° C | 99% | 1009.6 hPa | 0 mm | 2.24 m/s, 207° | 9 W/m² | - |
| 1777983775 | 13.89° C | 99% | 1009.6 hPa | 0 mm | 0.45 m/s, 238° | 3 W/m² | - |
| 1777983471 | 13.89° C | 99% | 1009.8 hPa | 0 mm | 0.45 m/s, 71° | 3 W/m² | - |
| 1777983168 | 13.89° C | 99% | 1009.5 hPa | 0 mm | 1.79 m/s, 156° | 2 W/m² | - |
| 1777982864 | 13.89° C | 99% | 1009.3 hPa | 0 mm | 1.79 m/s, 201° | 1 W/m² | - |
| 1777982560 | 13.89° C | 99% | 1009.6 hPa | 0 mm | 3.13 m/s, 83° | 0 W/m² | - |
| 1777982259 | 13.89° C | 99% | 1009.9 hPa | 0 mm | 1.79 m/s, 104° | 1 W/m² | - |
* Rain latest hour (hover to see other rain measurements)
** Current wind speed in m/s (hover to see current wind gust speed)